createdAt,value
2022-08-16T00:01:29.027Z,5.45
2022-08-16T00:04:05.107Z,5.18
2022-08-16T00:06:36.589Z,4.65
2022-08-16T00:09:10.775Z,4.47
2022-08-16T00:11:42.144Z,4.82
2022-08-16T00:14:15.142Z,5.30
2022-08-16T00:17:00.549Z,4.47
2022-08-16T00:19:41.283Z,4.72
2022-08-16T00:22:13.003Z,4.53
2022-08-16T00:27:17.509Z,4.90
2022-08-16T00:29:46.819Z,4.35
2022-08-16T00:32:18.586Z,4.70
2022-08-16T00:34:52.622Z,4.32
2022-08-16T00:37:56.700Z,4.13
2022-08-16T00:40:34.108Z,4.45
2022-08-16T00:43:11.977Z,4.55
2022-08-16T00:45:59.985Z,4.75
2022-08-16T00:51:17.492Z,4.18
2022-08-16T00:53:47.654Z,4.13
2022-08-16T00:56:57.150Z,4.25
2022-08-16T00:59:15.371Z,4.57
2022-08-16T01:01:47.309Z,4.50
2022-08-16T01:04:30.149Z,4.38
2022-08-16T01:07:03.120Z,5.07
2022-08-16T01:09:37.342Z,5.20
2022-08-16T01:12:10.613Z,5.25
2022-08-16T01:14:47.420Z,4.72
2022-08-16T01:17:19.462Z,4.72
2022-08-16T01:19:56.994Z,4.88
2022-08-16T01:22:48.254Z,4.40
2022-08-16T01:25:34.143Z,4.47
2022-08-16T01:28:09.922Z,4.57
2022-08-16T01:30:52.694Z,4.80
2022-08-16T01:33:23.802Z,5.13
2022-08-16T01:35:59.199Z,5.30
2022-08-16T01:38:32.490Z,5.13
2022-08-16T01:41:08.421Z,5.00
2022-08-16T01:43:41.033Z,5.05
2022-08-16T01:46:37.816Z,5.20
2022-08-16T01:51:46.455Z,5.38
2022-08-16T01:54:30.987Z,4.93
2022-08-16T01:57:04.709Z,5.70
2022-08-16T01:59:35.281Z,4.78
2022-08-16T02:02:26.504Z,5.18
2022-08-16T02:04:55.840Z,5.57
2022-08-16T02:07:28.017Z,5.25
2022-08-16T02:10:01.995Z,5.20
2022-08-16T02:12:52.156Z,5.55
2022-08-16T02:15:40.387Z,5.50
2022-08-16T02:18:14.075Z,5.05
2022-08-16T02:20:53.999Z,5.93
2022-08-16T02:23:24.769Z,5.88
2022-08-16T02:25:54.855Z,6.10
2022-08-16T02:28:27.981Z,5.80
2022-08-16T02:31:04.427Z,5.28
2022-08-16T02:33:44.402Z,6.50
2022-08-16T02:36:47.736Z,6.32
2022-08-16T02:39:23.085Z,6.00
2022-08-16T02:41:54.832Z,5.93
2022-08-16T02:44:28.526Z,5.88
2022-08-16T02:46:59.847Z,5.82
2022-08-16T02:50:34.330Z,5.88
2022-08-16T02:52:24.663Z,5.95
2022-08-16T02:55:01.330Z,5.63
2022-08-16T02:57:33.055Z,6.28
2022-08-16T03:00:33.598Z,5.68
2022-08-16T03:03:00.981Z,5.82
2022-08-16T03:05:33.581Z,6.07
2022-08-16T03:08:04.570Z,5.40
2022-08-16T03:10:40.297Z,5.78
2022-08-16T03:13:12.178Z,5.68
2022-08-16T03:15:43.583Z,5.57
2022-08-16T03:18:18.712Z,5.22
2022-08-16T03:21:03.798Z,5.65
2022-08-16T03:23:35.784Z,5.88
2022-08-16T03:26:06.998Z,5.50
2022-08-16T03:28:37.285Z,5.65
2022-08-16T03:31:10.385Z,5.70
2022-08-16T03:33:44.715Z,5.65
2022-08-16T03:36:30.064Z,5.75
2022-08-16T03:39:04.708Z,6.10
2022-08-16T03:41:50.118Z,6.00
2022-08-16T03:44:43.956Z,6.35
2022-08-16T03:47:19.152Z,5.93
2022-08-16T03:49:52.436Z,6.32
2022-08-16T03:55:02.025Z,6.38
2022-08-16T03:57:36.380Z,5.90
2022-08-16T04:00:35.190Z,6.25
2022-08-16T04:03:11.034Z,5.82
2022-08-16T04:05:46.935Z,6.00
2022-08-16T04:08:22.807Z,5.25
2022-08-16T04:11:00.726Z,5.35
2022-08-16T04:13:59.442Z,5.70
2022-08-16T04:16:26.782Z,5.38
2022-08-16T04:19:04.363Z,5.50
2022-08-16T04:21:45.821Z,5.53
2022-08-16T04:24:28.935Z,5.63
2022-08-16T04:27:01.324Z,5.55
2022-08-16T04:32:19.689Z,5.10
2022-08-16T04:34:52.435Z,6.28
2022-08-16T04:39:57.614Z,5.07
2022-08-16T04:42:29.902Z,5.10
2022-08-16T04:45:06.611Z,5.05
2022-08-16T04:50:18.223Z,5.43
2022-08-16T04:53:00.904Z,5.75
2022-08-16T04:55:38.440Z,5.75
2022-08-16T04:58:44.378Z,4.82
2022-08-16T05:01:01.293Z,4.45
2022-08-16T05:03:33.656Z,5.10
2022-08-16T05:06:07.047Z,5.32
2022-08-16T05:08:39.555Z,5.55
2022-08-16T05:11:24.787Z,4.82
2022-08-16T05:14:07.200Z,5.07
2022-08-16T05:16:40.700Z,5.03
2022-08-16T05:19:16.426Z,4.57
2022-08-16T05:24:48.978Z,4.32
2022-08-16T05:27:24.702Z,4.57
2022-08-16T05:30:01.256Z,4.45
2022-08-16T05:32:45.555Z,4.63
2022-08-16T05:35:17.308Z,4.80
2022-08-16T05:38:32.697Z,5.10
2022-08-16T05:41:04.063Z,5.28
2022-08-16T05:43:46.971Z,4.43
2022-08-16T05:46:43.542Z,4.32
2022-08-16T05:49:22.527Z,4.65
2022-08-16T05:51:59.514Z,5.30
2022-08-16T05:54:30.982Z,4.50
2022-08-16T05:57:03.043Z,5.28
2022-08-16T05:59:35.277Z,4.32
2022-08-16T06:02:07.739Z,4.65
2022-08-16T06:04:44.894Z,4.47
2022-08-16T06:07:24.749Z,4.68
2022-08-16T06:10:33.007Z,4.30
2022-08-16T06:13:06.499Z,4.50
2022-08-16T06:15:38.774Z,4.30
2022-08-16T06:18:11.906Z,4.90
2022-08-16T06:20:55.810Z,4.45
2022-08-16T06:23:27.521Z,4.20
2022-08-16T06:26:08.848Z,4.68
2022-08-16T06:28:43.489Z,4.60
2022-08-16T06:31:24.909Z,3.92
2022-08-16T06:33:57.079Z,4.25
2022-08-16T06:36:28.964Z,4.43
2022-08-16T06:39:14.426Z,4.55
2022-08-16T06:42:21.375Z,4.47
2022-08-16T06:47:53.052Z,4.35
2022-08-16T06:50:29.513Z,4.38
2022-08-16T06:53:08.862Z,4.70
2022-08-16T06:55:46.818Z,3.90
2022-08-16T06:58:31.320Z,4.18
2022-08-16T07:01:15.007Z,4.18
2022-08-16T07:03:55.441Z,4.05
2022-08-16T07:06:31.086Z,4.32
2022-08-16T07:09:09.801Z,3.65
2022-08-16T07:11:48.026Z,4.03
2022-08-16T07:14:32.199Z,3.95
2022-08-16T07:17:03.410Z,4.07
2022-08-16T07:20:03.778Z,3.95
2022-08-16T07:22:39.717Z,3.47
2022-08-16T07:25:25.655Z,3.83
2022-08-16T07:27:55.112Z,3.90
2022-08-16T07:30:46.651Z,7.85
2022-08-16T07:33:52.629Z,3.40
2022-08-16T07:36:29.089Z,3.58
2022-08-16T07:39:01.060Z,3.55
2022-08-16T07:41:36.008Z,3.60
2022-08-16T07:44:16.586Z,3.50
2022-08-16T07:46:55.598Z,3.72
2022-08-16T07:49:26.826Z,3.30
2022-08-16T07:52:18.872Z,3.53
2022-08-16T07:54:53.116Z,3.60
2022-08-16T07:57:24.506Z,3.60
2022-08-16T07:59:57.142Z,3.50
2022-08-16T08:02:29.784Z,3.03
2022-08-16T08:05:00.463Z,3.40
2022-08-16T08:07:33.306Z,3.33
2022-08-16T08:10:10.903Z,3.70
2022-08-16T08:12:41.849Z,3.97
2022-08-16T08:15:15.581Z,3.50
2022-08-16T08:17:58.738Z,3.35
2022-08-16T08:20:59.517Z,3.60
2022-08-16T08:23:32.003Z,3.75
2022-08-16T08:26:01.673Z,3.78
2022-08-16T08:28:32.556Z,3.65
2022-08-16T08:31:10.841Z,4.38
2022-08-16T08:33:51.609Z,3.83
2022-08-16T08:36:32.946Z,4.22
2022-08-16T08:39:12.609Z,3.88
2022-08-16T08:41:46.459Z,4.40
2022-08-16T08:44:28.324Z,3.78
2022-08-16T08:47:10.908Z,3.60
2022-08-16T08:49:50.304Z,3.70
2022-08-16T08:52:34.498Z,3.35
2022-08-16T08:55:10.939Z,3.42
2022-08-16T08:57:42.475Z,3.63
2022-08-16T09:00:34.750Z,3.53
2022-08-16T09:03:20.272Z,3.45
2022-08-16T09:05:53.631Z,3.30
2022-08-16T09:08:25.734Z,3.40
2022-08-16T09:11:02.909Z,3.40
2022-08-16T09:13:35.736Z,3.35
2022-08-16T09:18:36.733Z,3.67
2022-08-16T09:21:10.529Z,3.13
2022-08-16T09:23:43.766Z,3.40
2022-08-16T09:26:44.066Z,3.90
2022-08-16T09:29:16.935Z,3.70
2022-08-16T09:31:53.856Z,3.30
2022-08-16T09:34:24.988Z,3.17
2022-08-16T09:36:57.770Z,3.50
2022-08-16T09:39:41.527Z,3.45
2022-08-16T09:42:14.212Z,3.78
2022-08-16T09:45:09.746Z,4.00
2022-08-16T09:47:57.825Z,3.35
2022-08-16T09:50:36.704Z,3.53
2022-08-16T09:53:16.607Z,4.03
2022-08-16T09:55:49.341Z,3.30
2022-08-16T09:58:37.785Z,3.63
2022-08-16T10:01:11.550Z,3.78
2022-08-16T10:04:02.707Z,3.90
2022-08-16T10:06:33.374Z,3.95
2022-08-16T10:09:10.659Z,3.65
2022-08-16T10:11:56.984Z,3.63
2022-08-16T10:14:45.981Z,3.83
2022-08-16T10:17:16.758Z,3.38
2022-08-16T10:19:47.093Z,3.70
2022-08-16T10:22:23.138Z,3.80
2022-08-16T10:24:55.772Z,3.45
2022-08-16T10:27:45.593Z,3.53
2022-08-16T10:30:25.981Z,3.65
2022-08-16T10:32:57.858Z,3.63
2022-08-16T10:35:32.846Z,3.70
2022-08-16T10:38:27.483Z,3.75
2022-08-16T10:41:02.700Z,3.40
2022-08-16T10:43:32.223Z,3.65
2022-08-16T10:46:03.302Z,3.90
2022-08-16T10:48:53.259Z,3.50
2022-08-16T10:51:33.516Z,3.78
2022-08-16T10:54:05.001Z,3.78
2022-08-16T10:56:55.639Z,3.53
2022-08-16T10:59:46.887Z,3.85
2022-08-16T11:02:59.981Z,3.95
2022-08-16T11:05:11.321Z,3.42
2022-08-16T11:07:42.988Z,3.33
2022-08-16T11:11:07.057Z,3.90
2022-08-16T11:16:00.398Z,3.72
2022-08-16T11:18:48.017Z,3.58
2022-08-16T11:21:28.454Z,3.87
2022-08-16T11:23:59.617Z,3.80
2022-08-16T11:26:30.503Z,3.55
2022-08-16T11:29:17.772Z,4.00
2022-08-16T11:31:53.942Z,4.43
2022-08-16T11:34:23.869Z,3.67
2022-08-16T11:37:01.012Z,3.75
2022-08-16T11:39:34.167Z,3.72
2022-08-16T11:42:04.124Z,4.05
2022-08-16T11:44:57.002Z,3.50
2022-08-16T11:47:27.098Z,3.72
2022-08-16T11:49:56.506Z,3.60
2022-08-16T11:52:27.810Z,3.88
2022-08-16T11:55:00.288Z,3.83
2022-08-16T11:57:29.857Z,4.18
2022-08-16T12:00:04.102Z,3.92
2022-08-16T12:02:45.955Z,3.97
2022-08-16T12:05:18.590Z,3.95
2022-08-16T12:07:49.176Z,3.90
2022-08-16T12:10:21.265Z,3.85
2022-08-16T12:12:51.406Z,4.10
2022-08-16T12:15:24.755Z,4.30
2022-08-16T12:17:55.862Z,3.78
2022-08-16T12:20:30.053Z,3.92
2022-08-16T12:23:00.255Z,4.78
2022-08-16T12:25:32.517Z,4.10
2022-08-16T12:28:05.420Z,4.35
2022-08-16T12:30:41.233Z,3.70
2022-08-16T12:33:14.140Z,4.10
2022-08-16T12:35:44.583Z,4.03
2022-08-16T12:38:41.392Z,4.20
2022-08-16T12:41:04.520Z,4.05
2022-08-16T12:43:43.397Z,4.30
2022-08-16T12:46:16.563Z,4.20
2022-08-16T12:48:59.059Z,4.18
2022-08-16T12:57:36.456Z,4.50
2022-08-16T13:00:12.454Z,4.32
2022-08-16T13:02:56.222Z,4.55
2022-08-16T13:05:25.561Z,4.57
2022-08-16T13:07:58.140Z,4.65
2022-08-16T13:10:37.009Z,4.78
2022-08-16T13:13:09.722Z,5.00
2022-08-16T13:15:51.789Z,4.90
2022-08-16T13:18:33.948Z,4.80
2022-08-16T13:21:04.502Z,4.72
2022-08-16T13:23:35.674Z,4.93
2022-08-16T13:26:06.215Z,4.78
2022-08-16T13:28:39.518Z,4.88
2022-08-16T13:31:15.885Z,4.93
2022-08-16T13:33:46.366Z,5.20
2022-08-16T13:36:32.212Z,5.45
2022-08-16T13:39:06.819Z,4.95
2022-08-16T13:41:36.061Z,5.10
2022-08-16T13:44:09.290Z,4.95
2022-08-16T13:46:41.345Z,5.15
2022-08-16T13:49:11.553Z,4.82
2022-08-16T13:51:40.975Z,5.05
2022-08-16T13:54:10.399Z,4.93
2022-08-16T13:56:40.992Z,5.38
2022-08-16T13:59:20.493Z,5.20
2022-08-16T14:01:55.154Z,4.97
2022-08-16T14:04:27.913Z,5.35
2022-08-16T14:06:58.725Z,4.95
2022-08-16T14:09:29.591Z,5.05
2022-08-16T14:12:00.660Z,5.43
2022-08-16T14:14:33.369Z,5.80
2022-08-16T14:17:04.355Z,6.25
2022-08-16T14:19:33.667Z,5.82
2022-08-16T14:22:04.947Z,6.80
2022-08-16T14:24:47.097Z,6.10
2022-08-16T14:27:18.321Z,6.25
2022-08-16T14:29:52.274Z,6.43
2022-08-16T14:32:33.167Z,6.85
2022-08-16T14:35:07.060Z,5.95
2022-08-16T14:37:37.089Z,5.95
2022-08-16T14:40:07.411Z,6.30
2022-08-16T14:42:37.566Z,5.95
2022-08-16T14:45:10.500Z,6.00
2022-08-16T14:47:44.054Z,6.05
2022-08-16T14:50:16.078Z,5.67
2022-08-16T14:52:55.957Z,5.88
2022-08-16T14:55:27.988Z,6.07
2022-08-16T14:57:57.796Z,5.90
2022-08-16T15:00:33.167Z,6.63
2022-08-16T15:03:09.733Z,5.75
2022-08-16T15:05:41.284Z,6.45
2022-08-16T15:10:42.785Z,6.18
2022-08-16T15:13:16.478Z,6.65
2022-08-16T15:15:56.305Z,7.15
2022-08-16T15:18:31.748Z,6.80
2022-08-16T15:21:02.084Z,6.55
2022-08-16T15:23:33.613Z,7.10
2022-08-16T15:26:08.325Z,7.40
2022-08-16T15:28:38.439Z,6.82
2022-08-16T15:31:14.874Z,6.57
2022-08-16T15:33:50.977Z,6.95
2022-08-16T15:36:26.070Z,7.78
2022-08-16T15:39:05.742Z,7.30
2022-08-16T15:42:01.455Z,7.72
2022-08-16T15:44:38.932Z,7.50
2022-08-16T15:47:26.336Z,8.15
2022-08-16T15:49:57.555Z,8.07
2022-08-16T15:52:30.031Z,8.48
2022-08-16T15:55:07.497Z,8.05
2022-08-16T15:57:42.736Z,7.78
2022-08-16T16:00:20.399Z,8.23
2022-08-16T16:03:01.166Z,9.25
2022-08-16T16:05:30.748Z,8.80
2022-08-16T16:08:11.097Z,8.40
2022-08-16T16:10:41.792Z,8.73
2022-08-16T16:13:12.471Z,8.63
2022-08-16T16:15:44.450Z,9.20
2022-08-16T16:18:16.314Z,9.27
2022-08-16T16:20:48.541Z,8.43
2022-08-16T16:23:23.545Z,8.85
2022-08-16T16:25:54.341Z,9.25
2022-08-16T16:29:05.297Z,8.77
2022-08-16T16:31:21.707Z,9.68
2022-08-16T16:33:57.599Z,9.63
2022-08-16T16:36:29.611Z,9.82
2022-08-16T16:39:00.263Z,10.02
2022-08-16T16:41:31.766Z,10.43
2022-08-16T16:44:03.117Z,9.80
2022-08-16T16:46:40.470Z,9.82
2022-08-16T16:49:18.245Z,9.63
2022-08-16T16:51:50.113Z,10.07
2022-08-16T16:54:27.409Z,9.90
2022-08-16T16:56:58.534Z,13.38
2022-08-16T16:59:28.079Z,9.13
2022-08-16T17:02:39.539Z,11.43
2022-08-16T17:07:24.373Z,10.90
2022-08-16T17:09:54.069Z,10.50
2022-08-16T17:13:05.076Z,11.70
2022-08-16T17:15:14.970Z,11.55
2022-08-16T17:17:59.791Z,11.98
2022-08-16T17:20:38.000Z,12.23
2022-08-16T17:23:10.394Z,12.93
2022-08-16T17:25:39.959Z,12.68
2022-08-16T17:29:00.066Z,13.15
2022-08-16T17:31:00.515Z,12.98
2022-08-16T17:33:36.910Z,13.15
2022-08-16T17:36:12.834Z,12.93
2022-08-16T17:39:04.461Z,13.93
2022-08-16T17:41:33.737Z,13.57
2022-08-16T17:44:03.350Z,13.10
2022-08-16T17:46:51.263Z,13.25
2022-08-16T17:49:31.906Z,13.73
2022-08-16T17:52:03.279Z,13.60
2022-08-16T17:57:03.581Z,13.30
2022-08-16T17:59:35.529Z,13.88
2022-08-16T18:02:42.793Z,14.75
2022-08-16T18:05:04.487Z,13.75
2022-08-16T18:07:37.288Z,13.77
2022-08-16T18:10:07.023Z,13.48
2022-08-16T18:12:50.839Z,14.43
2022-08-16T18:15:26.962Z,13.63
2022-08-16T18:20:39.279Z,13.25
2022-08-16T18:23:15.076Z,14.38
2022-08-16T18:25:46.834Z,13.85
2022-08-16T18:28:17.095Z,14.32
2022-08-16T18:30:51.368Z,13.68
2022-08-16T18:33:23.670Z,14.20
2022-08-16T18:35:57.534Z,13.93
2022-08-16T18:38:30.212Z,13.85
2022-08-16T18:40:59.753Z,14.18
2022-08-16T18:44:23.442Z,14.50
2022-08-16T18:46:18.968Z,13.77
2022-08-16T18:48:48.130Z,14.02
2022-08-16T18:51:24.351Z,13.80
2022-08-16T18:53:56.707Z,14.32
2022-08-16T18:56:57.075Z,14.38
2022-08-16T18:59:15.532Z,13.95
2022-08-16T19:01:46.946Z,14.02
2022-08-16T19:04:47.996Z,14.80
2022-08-16T19:07:16.850Z,15.15
2022-08-16T19:09:49.000Z,14.30
2022-08-16T19:12:37.848Z,15.77
2022-08-16T19:15:12.146Z,14.32
2022-08-16T19:17:43.275Z,15.57
2022-08-16T19:20:14.563Z,15.80
2022-08-16T19:25:46.142Z,14.45
2022-08-16T19:28:49.281Z,15.35
2022-08-16T19:31:08.006Z,14.88
2022-08-16T19:33:38.672Z,15.40
2022-08-16T19:36:11.745Z,14.82
2022-08-16T19:38:57.770Z,15.75
2022-08-16T19:41:36.919Z,15.77
2022-08-16T19:44:07.954Z,15.55
2022-08-16T19:46:37.793Z,15.13
2022-08-16T19:49:07.729Z,14.77
2022-08-16T19:51:37.859Z,15.75
2022-08-16T19:54:07.343Z,15.18
2022-08-16T19:56:38.499Z,14.82
2022-08-16T19:59:40.000Z,14.30
2022-08-16T20:01:56.990Z,14.93
2022-08-16T20:04:26.503Z,14.57
2022-08-16T20:07:01.071Z,14.90
2022-08-16T20:09:30.432Z,14.93
2022-08-16T20:12:08.495Z,13.48
2022-08-16T20:14:37.810Z,13.63
2022-08-16T20:17:07.458Z,13.80
2022-08-16T20:19:40.279Z,13.40
2022-08-16T20:22:51.944Z,13.57
2022-08-16T20:25:19.143Z,13.63
2022-08-16T20:28:00.961Z,12.00
2022-08-16T20:30:31.434Z,11.40
2022-08-16T20:33:00.770Z,12.98
2022-08-16T20:35:30.942Z,12.80
2022-08-16T20:38:01.613Z,12.45
2022-08-16T20:40:35.397Z,12.27
2022-08-16T20:43:11.233Z,11.80
2022-08-16T20:45:41.775Z,12.15
2022-08-16T20:48:11.123Z,11.77
2022-08-16T20:50:43.101Z,12.77
2022-08-16T20:53:13.111Z,12.77
2022-08-16T20:55:44.327Z,11.00
2022-08-16T20:58:15.766Z,11.68
2022-08-16T21:00:45.015Z,11.85
2022-08-16T21:03:15.053Z,12.40
2022-08-16T21:05:46.234Z,10.88
2022-08-16T21:08:51.144Z,11.57
2022-08-16T21:11:07.552Z,11.35
2022-08-16T21:13:42.674Z,10.68
2022-08-16T21:16:15.381Z,11.15
2022-08-16T21:18:44.664Z,11.48
2022-08-16T21:21:13.898Z,11.48
2022-08-16T21:23:45.989Z,11.43
2022-08-16T21:26:15.181Z,11.18
2022-08-16T21:28:46.465Z,10.77
2022-08-16T21:31:18.019Z,11.52
2022-08-16T21:36:35.665Z,11.43
2022-08-16T21:39:07.392Z,11.32
2022-08-16T21:41:37.921Z,11.60
2022-08-16T21:44:09.881Z,10.98
2022-08-16T21:46:39.128Z,10.98
2022-08-16T21:49:08.678Z,11.63
2022-08-16T21:51:39.859Z,12.05
2022-08-16T21:54:09.082Z,11.57
2022-08-16T21:56:38.254Z,10.88
2022-08-16T21:59:10.573Z,10.70
2022-08-16T22:01:42.598Z,11.27
2022-08-16T22:04:38.020Z,10.00
2022-08-16T22:07:03.041Z,10.95
2022-08-16T22:09:33.467Z,10.23
2022-08-16T22:12:04.084Z,10.27
2022-08-16T22:14:35.357Z,10.47
2022-08-16T22:17:04.622Z,10.80
2022-08-16T22:19:34.402Z,10.48
2022-08-16T22:22:03.899Z,10.82
2022-08-16T22:24:33.204Z,10.57
2022-08-16T22:27:02.556Z,10.07
2022-08-16T22:29:32.871Z,10.88
2022-08-16T22:32:06.061Z,10.40
2022-08-16T22:34:36.396Z,11.15
2022-08-16T22:37:05.938Z,10.80
2022-08-16T22:39:35.811Z,11.32
2022-08-16T22:42:11.280Z,10.27
2022-08-16T22:44:45.727Z,10.75
2022-08-16T22:47:17.910Z,10.80
2022-08-16T22:49:47.474Z,10.63
2022-08-16T22:52:25.007Z,10.80
2022-08-16T22:55:06.565Z,11.35
2022-08-16T22:57:35.766Z,10.93
2022-08-16T23:00:08.145Z,10.48
2022-08-16T23:02:56.437Z,10.73
2022-08-16T23:05:26.845Z,11.77
2022-08-16T23:07:57.101Z,10.50
2022-08-16T23:10:26.529Z,10.70
2022-08-16T23:12:59.668Z,10.27
2022-08-16T23:15:30.710Z,10.57
2022-08-16T23:18:03.518Z,10.68
2022-08-16T23:20:34.290Z,11.43
2022-08-16T23:23:19.335Z,9.90
2022-08-16T23:25:54.956Z,9.90
2022-08-16T23:28:26.898Z,10.48
2022-08-16T23:30:56.862Z,10.65
2022-08-16T23:33:29.368Z,10.55
2022-08-16T23:36:01.125Z,11.57
2022-08-16T23:38:37.609Z,9.73
2022-08-16T23:41:11.497Z,10.98
2022-08-16T23:43:43.788Z,8.45
2022-08-16T23:46:19.192Z,11.75
2022-08-16T23:49:56.773Z,10.50
2022-08-16T23:54:11.098Z,10.65
2022-08-16T23:56:40.968Z,8.63
2022-08-16T23:59:10.272Z,10.98
